GTOMP ESUT-EN08

Flight info

Callsign GTOMP
Flight time N/A
Altitude 3500
Route ESUT ENHT
Aircraft BE35/L-V/N

Departure

Time 2026-04-22 18:05
Airport Hemavan Airport (ESUT)

Arrival

Time N/A
Airport EN08
Time Latitude Longitude Altitude Speed Heading
2026-04-22 17:56 65.81149 15.08200 1505 ft 0 kts 291°
2026-04-22 17:57 65.81135 15.08206 1505 ft 0 kts 291°
2026-04-22 18:00 65.81135 15.08205 1505 ft 0 kts 291°
2026-04-22 18:00 65.81149 15.08200 1505 ft 0 kts 291°
2026-04-22 18:01 65.81138 15.08183 1504 ft 0 kts 291°
2026-04-22 18:02 65.81141 15.08168 1504 ft 6 kts 301°
2026-04-22 18:03 65.81154 15.08133 1503 ft 0 kts 272°
2026-04-22 18:03 65.81154 15.08130 1503 ft 0 kts 272°
2026-04-22 18:03 65.81183 15.07948 1502 ft 18 kts 266°
2026-04-22 18:03 65.81141 15.07694 1500 ft 17 kts 243°
2026-04-22 18:04 65.81094 15.07661 1500 ft 0 kts 153°
2026-04-22 18:04 65.81086 15.07672 1500 ft 10 kts 153°
2026-04-22 18:04 65.80851 15.07975 1503 ft 72 kts 152°
2026-04-22 18:05 65.80279 15.08685 1635 ft 101 kts 150°
2026-04-22 18:05 65.79650 15.09545 1954 ft 107 kts 151°
2026-04-22 18:05 65.78991 15.10360 2327 ft 108 kts 150°
2026-04-22 18:05 65.78323 15.11302 2620 ft 116 kts 148°
2026-04-22 18:06 65.77648 15.12397 2941 ft 118 kts 143°
2026-04-22 18:06 65.76945 15.13448 3225 ft 123 kts 159°
2026-04-22 18:06 65.76108 15.14065 3421 ft 133 kts 162°
2026-04-22 18:06 65.75185 15.14703 3557 ft 144 kts 164°
2026-04-22 18:07 65.74217 15.15799 3504 ft 159 kts 134°
2026-04-22 18:07 65.73908 15.18343 3495 ft 166 kts 82°
2026-04-22 18:07 65.74321 15.20904 3541 ft 165 kts 69°
2026-04-22 18:07 65.74681 15.23570 3567 ft 165 kts 75°
2026-04-22 18:08 65.74931 15.26347 3477 ft 170 kts 82°
2026-04-22 18:08 65.75037 15.29208 3402 ft 174 kts 87°
2026-04-22 18:08 65.75067 15.32142 3264 ft 175 kts 81°
2026-04-22 18:08 65.75744 15.34363 3318 ft 166 kts 22°
2026-04-22 18:09 65.76839 15.34158 3451 ft 152 kts 343°
2026-04-22 18:09 65.77830 15.34050 3662 ft 142 kts
2026-04-22 18:09 65.78809 15.34309 3710 ft 145 kts
2026-04-22 18:09 65.79828 15.34281 3847 ft 139 kts 351°
2026-04-22 18:10 65.80783 15.33808 3879 ft 144 kts 346°
2026-04-22 18:10 65.81753 15.33433 3986 ft 141 kts 357°
2026-04-22 18:10 65.82770 15.33479 3918 ft 150 kts
2026-04-22 18:10 65.83818 15.33717 3775 ft 156 kts
2026-04-22 18:11 65.84867 15.34056 3772 ft 151 kts
2026-04-22 18:11 65.85839 15.34492 4030 ft 127 kts
2026-04-22 18:11 65.86388 15.33577 4228 ft 117 kts 294°
2026-04-22 18:11 65.86723 15.31627 4093 ft 136 kts 291°
2026-04-22 18:12 65.87148 15.29373 4010 ft 153 kts 290°
2026-04-22 18:12 65.87479 15.26803 3890 ft 164 kts 284°
2026-04-22 18:12 65.87678 15.24990 3813 ft 165 kts 284°
2026-04-22 18:12 65.88170 15.21492 3805 ft 160 kts 290°
2026-04-22 18:13 65.88490 15.19019 3853 ft 155 kts 281°
2026-04-22 18:13 65.88531 15.16394 3718 ft 156 kts 253°
2026-04-22 18:13 65.87868 15.14303 3456 ft 161 kts 219°
2026-04-22 18:13 65.87087 15.12292 3231 ft 163 kts 229°
2026-04-22 18:14 65.86330 15.10329 3084 ft 161 kts 224°
2026-04-22 18:14 65.85595 15.08394 3050 ft 145 kts 227°
2026-04-22 18:14 65.84966 15.06685 2917 ft 133 kts 223°
2026-04-22 18:14 65.84273 15.05228 2654 ft 131 kts 218°
2026-04-22 18:15 65.83432 15.04492 2371 ft 127 kts 171°
2026-04-22 18:15 65.82690 15.05589 2049 ft 130 kts 145°
2026-04-22 18:15 65.81912 15.06634 1801 ft 126 kts 152°
2026-04-22 18:15 65.81186 15.07564 1578 ft 114 kts 155°
2026-04-22 18:16 65.80552 15.08363 1512 ft 92 kts 152°
2026-04-22 18:16 65.80025 15.09026 1516 ft 92 kts 150°
2026-04-22 18:16 65.79409 15.09866 1675 ft 107 kts 149°
2026-04-22 18:16 65.78754 15.09568 2085 ft 102 kts 221°
2026-04-22 18:17 65.78584 15.07930 2352 ft 115 kts 284°
2026-04-22 18:17 65.79140 15.06291 2360 ft 143 kts 321°
2026-04-22 18:17 65.80047 15.04817 2285 ft 164 kts 329°
2026-04-22 18:17 65.80979 15.03230 2453 ft 162 kts 319°
2026-04-22 18:18 65.81522 15.00895 2547 ft 165 kts 289°
2026-04-22 18:18 65.81879 14.98209 2584 ft 165 kts 284°
2026-04-22 18:18 65.82115 14.95462 2569 ft 164 kts 279°
2026-04-22 18:18 65.82297 14.92730 2536 ft 165 kts 276°
2026-04-22 18:19 65.82458 14.89957 2520 ft 165 kts 279°
2026-04-22 18:19 65.82691 14.87253 2489 ft 165 kts 282°
2026-04-22 18:19 65.82899 14.84522 2530 ft 161 kts 277°
2026-04-22 18:19 65.83093 14.81791 2453 ft 166 kts 280°
2026-04-22 18:20 65.83307 14.79018 2417 ft 166 kts 277°
2026-04-22 18:20 65.83469 14.76284 2470 ft 161 kts 279°
2026-04-22 18:20 65.83719 14.73581 2444 ft 163 kts 284°
2026-04-22 18:20 65.83862 14.71040 2648 ft 147 kts 251°
2026-04-22 18:21 65.83181 14.69339 2678 ft 147 kts 209°
2026-04-22 18:21 65.82227 14.68312 2649 ft 154 kts 195°
2026-04-22 18:21 65.81161 14.67687 2579 ft 161 kts 188°
2026-04-22 18:21 65.80308 14.66370 2790 ft 150 kts 232°
2026-04-22 18:22 65.79765 14.64015 2645 ft 163 kts 245°
2026-04-22 18:22 65.79589 14.61389 2733 ft 162 kts 265°
2026-04-22 18:22 65.79563 14.58651 2695 ft 165 kts 268°
2026-04-22 18:22 65.79612 14.55860 2683 ft 168 kts 270°
2026-04-22 18:23 65.79625 14.53076 2798 ft 161 kts 270°
2026-04-22 18:23 65.79664 14.50297 2687 ft 170 kts 272°
2026-04-22 18:23 65.79752 14.47392 2593 ft 173 kts 274°
2026-04-22 18:24 65.79775 14.41607 2539 ft 169 kts 254°
2026-04-22 18:24 65.79016 14.39877 2696 ft 157 kts 188°
2026-04-22 18:24 65.76904 14.40878 2691 ft 159 kts 176°
2026-04-22 18:25 65.75785 14.41016 2709 ft 160 kts 176°
2026-04-22 18:25 65.74691 14.41312 2771 ft 156 kts 177°
2026-04-22 18:25 65.73643 14.41284 2987 ft 147 kts 182°
2026-04-22 18:26 65.71542 14.40657 2923 ft 164 kts 192°
2026-04-22 18:26 65.70404 14.39677 2515 ft 184 kts 207°
2026-04-22 18:26 65.69590 14.37571 2594 ft 172 kts 253°
2026-04-22 18:26 65.69447 14.34628 2411 ft 174 kts 262°
2026-04-22 18:27 65.69314 14.31886 2523 ft 156 kts 259°
2026-04-22 18:27 65.68845 14.29700 2562 ft 149 kts 230°
2026-04-22 18:27 65.68163 14.27700 2392 ft 154 kts 225°
2026-04-22 18:27 65.67491 14.25855 2555 ft 137 kts 247°
2026-04-22 18:28 65.67333 14.23589 2572 ft 139 kts 268°
2026-04-22 18:28 65.67518 14.21265 2456 ft 149 kts 291°
2026-04-22 18:28 65.67982 14.18923 2215 ft 162 kts 293°
2026-04-22 18:28 65.68437 14.16572 2310 ft 148 kts 274°
2026-04-22 18:29 65.68030 14.14511 2335 ft 142 kts 213°
2026-04-22 18:29 65.67132 14.13986 2400 ft 131 kts 182°
2026-04-22 18:29 65.66264 14.13439 2393 ft 126 kts 208°
2026-04-22 18:29 65.65565 14.12242 2350 ft 122 kts 212°
2026-04-22 18:30 65.64824 14.11352 2323 ft 118 kts 200°
2026-04-22 18:30 65.63499 14.09433 2363 ft 107 kts 214°
2026-04-22 18:30 65.62914 14.08375 2322 ft 106 kts 213°
2026-04-22 18:31 65.62293 14.07275 2132 ft 112 kts 216°
2026-04-22 18:31 65.61662 14.06132 1769 ft 127 kts 213°
2026-04-22 18:31 65.60923 14.04913 1496 ft 122 kts 207°
2026-04-22 18:31 65.60139 14.04196 1239 ft 121 kts 199°
2026-04-22 18:32 65.59465 14.03342 1266 ft 98 kts 225°
2026-04-22 18:32 65.59397 14.01729 1069 ft 107 kts 275°
2026-04-22 18:32 65.59444 14.00039 870 ft 97 kts 272°
2026-04-22 18:32 65.59466 13.98506 728 ft 80 kts 269°
2026-04-22 18:33 65.59472 13.97137 972 ft 85 kts 260°
2026-04-22 18:33 65.59183 13.95842 1206 ft 104 kts 230°
2026-04-22 18:33 65.58731 13.94199 1322 ft 130 kts 236°
2026-04-22 18:33 65.58231 13.92230 1542 ft 138 kts 234°
2026-04-22 18:34 65.57693 13.90347 1866 ft 136 kts 233°
2026-04-22 18:34 65.57155 13.88382 1943 ft 151 kts 234°
2026-04-22 18:34 65.56577 13.86269 1966 ft 147 kts 235°
2026-04-22 18:34 65.56114 13.84149 2034 ft 143 kts 246°
2026-04-22 18:35 65.55688 13.81945 2039 ft 144 kts 241°
2026-04-22 18:35 65.55229 13.79822 2103 ft 141 kts 238°
2026-04-22 18:35 65.54713 13.77820 2111 ft 143 kts 236°
2026-04-22 18:35 65.54174 13.75812 2132 ft 143 kts 236°
2026-04-22 18:36 65.53622 13.73775 2101 ft 145 kts 234°
2026-04-22 18:36 65.52853 13.72222 2082 ft 146 kts 207°
2026-04-22 18:36 65.51867 13.71716 2053 ft 146 kts 178°
2026-04-22 18:36 65.50875 13.71709 2087 ft 144 kts 181°
2026-04-22 18:37 65.49871 13.71473 2053 ft 146 kts 188°
2026-04-22 18:37 65.48864 13.71091 2020 ft 148 kts 189°
2026-04-22 18:37 65.47851 13.70628 2017 ft 147 kts 192°
2026-04-22 18:37 65.46875 13.69988 2009 ft 147 kts 197°
2026-04-22 18:38 65.45903 13.69225 2020 ft 145 kts 196°
2026-04-22 18:38 65.44934 13.68540 1989 ft 146 kts 195°
2026-04-22 18:38 65.43992 13.67686 1961 ft 146 kts 200°
2026-04-22 18:39 65.42073 13.65985 1912 ft 147 kts 200°
2026-04-22 18:39 65.41119 13.65190 1891 ft 147 kts 200°
2026-04-22 18:39 65.40202 13.64115 1885 ft 146 kts 206°
2026-04-22 18:39 65.39283 13.63123 1883 ft 145 kts 202°
2026-04-22 18:40 65.38368 13.62063 1853 ft 146 kts 207°
2026-04-22 18:40 65.37494 13.60853 1860 ft 145 kts 209°
2026-04-22 18:40 65.36618 13.59670 1864 ft 144 kts 207°
2026-04-22 18:40 65.35756 13.58512 1841 ft 145 kts 211°
2026-04-22 18:41 65.34897 13.57241 1861 ft 143 kts 210°
2026-04-22 18:41 65.34032 13.56059 1883 ft 142 kts 210°
2026-04-22 18:41 65.33157 13.55032 1940 ft 138 kts 202°
2026-04-22 18:41 65.32272 13.54138 1963 ft 138 kts 204°
2026-04-22 18:42 65.31369 13.53320 1943 ft 141 kts 197°
2026-04-22 18:42 65.30431 13.52513 1876 ft 146 kts 199°
2026-04-22 18:42 65.29462 13.51789 1851 ft 146 kts 196°
2026-04-22 18:42 65.28503 13.51038 1863 ft 144 kts 199°
2026-04-22 18:43 65.27583 13.50110 1857 ft 144 kts 205°
2026-04-22 18:43 65.26701 13.48978 1865 ft 144 kts 211°
2026-04-22 18:43 65.25848 13.47693 1824 ft 145 kts 212°
2026-04-22 18:43 65.25022 13.46324 1800 ft 146 kts 215°
2026-04-22 18:44 65.24213 13.44884 1817 ft 144 kts 217°
2026-04-22 18:44 65.23392 13.43661 1923 ft 136 kts 207°
2026-04-22 18:44 65.22566 13.42608 2052 ft 128 kts 204°
2026-04-22 18:44 65.21750 13.42028 2160 ft 124 kts 189°
2026-04-22 18:45 65.20931 13.41744 2352 ft 114 kts 169°
2026-04-22 18:45 65.20159 13.42394 2354 ft 123 kts 161°
2026-04-22 18:45 65.19271 13.42621 2263 ft 137 kts 180°
2026-04-22 18:45 65.18282 13.42410 2026 ft 156 kts 188°
2026-04-22 18:46 65.17131 13.41968 1710 ft 172 kts 187°
2026-04-22 18:46 65.15997 13.41696 1929 ft 154 kts 185°
2026-04-22 18:46 65.14999 13.41072 2025 ft 151 kts 200°
2026-04-22 18:46 65.13986 13.40186 1945 ft 159 kts 199°
2026-04-22 18:47 65.12967 13.39294 2001 ft 156 kts 200°
2026-04-22 18:47 65.11944 13.38252 1893 ft 164 kts 206°
2026-04-22 18:47 65.10974 13.36922 1930 ft 160 kts 213°
2026-04-22 18:47 65.10049 13.35382 1762 ft 169 kts 214°
2026-04-22 18:48 65.09046 13.33818 1656 ft 169 kts 210°
2026-04-22 18:48 65.08052 13.32553 1778 ft 158 kts 203°
2026-04-22 18:48 65.07064 13.31524 1854 ft 154 kts 202°
2026-04-22 18:48 65.06011 13.30607 1613 ft 169 kts 197°
2026-04-22 18:49 65.04928 13.29626 1627 ft 164 kts 198°
2026-04-22 18:49 65.03809 13.28848 1472 ft 167 kts 197°
2026-04-22 18:49 65.02762 13.27916 1604 ft 157 kts 199°
2026-04-22 18:49 65.01710 13.27148 1532 ft 162 kts 192°
2026-04-22 18:50 65.00614 13.26641 1578 ft 157 kts 189°
2026-04-22 18:50 64.99621 13.25663 1580 ft 160 kts 208°
2026-04-22 18:50 64.98659 13.24155 1377 ft 168 kts 216°
2026-04-22 18:50 64.97719 13.22495 1338 ft 166 kts 211°
2026-04-22 18:51 64.96719 13.21280 1363 ft 162 kts 207°
2026-04-22 18:51 64.95751 13.19906 1290 ft 165 kts 209°
2026-04-22 18:51 64.94771 13.18695 1590 ft 138 kts 202°
2026-04-22 18:51 64.93916 13.18022 1820 ft 131 kts 193°
2026-04-22 18:52 64.92992 13.17641 1822 ft 140 kts 184°
2026-04-22 18:52 64.92031 13.17634 1939 ft 138 kts 181°
2026-04-22 18:52 64.91016 13.17188 1672 ft 161 kts 189°
2026-04-22 18:52 64.89923 13.16319 1417 ft 172 kts 205°
2026-04-22 18:53 64.88906 13.15023 1491 ft 160 kts 208°
2026-04-22 18:53 64.88049 13.13520 1616 ft 153 kts 224°
2026-04-22 18:53 64.87233 13.11983 1663 ft 151 kts 212°
2026-04-22 18:53 64.86351 13.10547 1590 ft 157 kts 214°
2026-04-22 18:54 64.85474 13.09022 1617 ft 156 kts 216°
2026-04-22 18:54 64.84607 13.07388 1532 ft 161 kts 218°
2026-04-22 18:54 64.83749 13.05713 1528 ft 159 kts 219°
2026-04-22 18:54 64.82904 13.04074 1589 ft 154 kts 218°
2026-04-22 18:55 64.82304 13.02313 1968 ft 132 kts 243°
2026-04-22 18:55 64.82039 13.00263 1885 ft 137 kts 255°
2026-04-22 18:55 64.81653 12.98115 1461 ft 153 kts 241°
2026-04-22 18:55 64.81036 12.96035 1239 ft 151 kts 229°
2026-04-22 18:56 64.80342 12.94352 1252 ft 139 kts 224°
2026-04-22 18:56 64.79676 12.92611 1056 ft 142 kts 229°
2026-04-22 18:56 64.78935 12.91459 1154 ft 129 kts 211°
2026-04-22 18:56 64.78252 12.89994 1061 ft 137 kts 224°
2026-04-22 18:57 64.77560 12.88420 1016 ft 140 kts 219°
2026-04-22 18:57 64.76756 12.87257 1071 ft 140 kts 207°
2026-04-22 18:57 64.75886 12.86244 1158 ft 143 kts 199°
2026-04-22 18:57 64.74893 12.85767 1226 ft 146 kts 186°
2026-04-22 18:58 64.73922 12.85142 1286 ft 148 kts 212°
2026-04-22 18:58 64.73134 12.83384 1153 ft 161 kts 229°
2026-04-22 18:58 64.72459 12.81345 1144 ft 163 kts 231°
2026-04-22 18:58 64.71639 12.79390 1026 ft 166 kts 218°
2026-04-22 18:59 64.70740 12.77754 1113 ft 160 kts 219°
2026-04-22 18:59 64.69926 12.76005 1088 ft 163 kts 223°
2026-04-22 18:59 64.69103 12.74126 1068 ft 164 kts 224°
2026-04-22 18:59 64.68304 12.72320 1109 ft 161 kts 224°
2026-04-22 19:00 64.67821 12.70977 1088 ft 163 kts 233°
2026-04-22 19:00 64.66964 12.68081 1138 ft 160 kts 235°
2026-04-22 19:00 64.66299 12.65989 1142 ft 161 kts 228°
2026-04-22 19:00 64.65523 12.64117 1133 ft 162 kts 225°
2026-04-22 19:01 64.64648 12.62492 1150 ft 161 kts 209°
2026-04-22 19:01 64.63673 12.61213 1129 ft 163 kts 209°
2026-04-22 19:01 64.62682 12.59889 1068 ft 165 kts 208°
2026-04-22 19:01 64.61649 12.58786 1122 ft 161 kts 201°
2026-04-22 19:02 64.60654 12.57584 1111 ft 162 kts 212°
2026-04-22 19:02 64.59676 12.56274 1115 ft 161 kts 207°
2026-04-22 19:02 64.58762 12.54891 1179 ft 159 kts 215°
2026-04-22 19:02 64.57845 12.53357 1067 ft 166 kts 218°
2026-04-22 19:03 64.56958 12.51561 994 ft 168 kts 220°
2026-04-22 19:03 64.56116 12.49720 926 ft 169 kts 225°
2026-04-22 19:03 64.55273 12.47826 895 ft 167 kts 220°
2026-04-22 19:03 64.54462 12.46112 1044 ft 149 kts 223°
2026-04-22 19:04 64.53760 12.44432 1068 ft 140 kts 227°
2026-04-22 19:04 64.53123 12.42773 1077 ft 133 kts 230°
2026-04-22 19:04 64.52537 12.41070 972 ft 134 kts 230°
2026-04-22 19:04 64.51980 12.39364 884 ft 135 kts 233°
2026-04-22 19:05 64.51414 12.37743 944 ft 122 kts 229°
2026-04-22 19:05 64.50844 12.36417 962 ft 117 kts 211°
2026-04-22 19:05 64.50092 12.35778 981 ft 111 kts 198°
2026-04-22 19:05 64.49404 12.35037 1018 ft 107 kts 209°
2026-04-22 19:06 64.48825 12.34280 1136 ft 89 kts 206°
2026-04-22 19:06 64.48237 12.33541 958 ft 103 kts 206°
2026-04-22 19:06 64.47671 12.32525 794 ft 107 kts 219°
2026-04-22 19:07 64.46406 12.32142 574 ft 99 kts 136°
2026-04-22 19:07 64.45827 12.32829 544 ft 95 kts 169°
2026-04-22 19:07 64.45225 12.33091 577 ft 82 kts 162°
2026-04-22 19:07 64.44716 12.33599 582 ft 78 kts 161°
2026-04-22 19:08 64.44196 12.33909 572 ft 77 kts 165°
2026-04-22 19:08 64.43688 12.34150 618 ft 69 kts 177°
2026-04-22 19:08 64.43233 12.34144 696 ft 63 kts 172°
2026-04-22 19:08 64.42796 12.34206 766 ft 61 kts 152°
2026-04-22 19:09 64.42415 12.34573 835 ft 60 kts 162°
2026-04-22 19:09 64.41987 12.34676 904 ft 65 kts 173°
2026-04-22 19:09 64.41524 12.34900 951 ft 72 kts 161°
2026-04-22 19:09 64.40994 12.35187 905 ft 83 kts 168°
2026-04-22 19:10 64.40410 12.35533 861 ft 89 kts 155°
2026-04-22 19:10 64.39886 12.36169 869 ft 83 kts 144°
2026-04-22 19:10 64.39387 12.36981 719 ft 91 kts 142°
2026-04-22 19:10 64.38897 12.37777 664 ft 85 kts 149°
2026-04-22 19:11 64.38389 12.38191 711 ft 66 kts 193°
2026-04-22 19:11 64.38243 12.37303 693 ft 67 kts 275°
2026-04-22 19:11 64.38255 12.36166 640 ft 74 kts 269°
2026-04-22 19:11 64.38454 12.35191 652 ft 68 kts 324°
2026-04-22 19:12 64.38905 12.34722 572 ft 73 kts 330°
2026-04-22 19:12 64.39359 12.34240 449 ft 71 kts 334°
2026-04-22 19:12 64.39755 12.33861 418 ft 47 kts 340°
2026-04-22 19:12 64.39968 12.33723 352 ft 15 kts 353°
2026-04-22 19:13 64.40008 12.33682 341 ft 2 kts 167°
2026-04-22 19:13 64.39983 12.33756 346 ft 8 kts 156°
2026-04-22 19:13 64.39951 12.33771 357 ft 4 kts 188°
2026-04-22 19:13 64.39919 12.33753 366 ft 6 kts 192°
2026-04-22 19:14 64.39860 12.33783 386 ft 9 kts 153°
2026-04-22 19:14 64.39839 12.33798 393 ft 3 kts 170°
2026-04-22 19:14 64.39766 12.33859 415 ft 12 kts 150°
2026-04-22 19:14 64.39719 12.33842 426 ft 3 kts 214°
2026-04-22 19:15 64.39719 12.33841 426 ft 0 kts 207°